sensor_id;sensor_type;location;lat;lon;timestamp;temperature;humidity
23359;DHT22;11851;50.796;4.372;2022-07-12T00:01:29;22.10;99.90
23359;DHT22;11851;50.796;4.372;2022-07-12T00:03:55;22.10;99.90
23359;DHT22;11851;50.796;4.372;2022-07-12T00:06:20;22.10;99.90
23359;DHT22;11851;50.796;4.372;2022-07-12T00:08:46;22.00;99.90
23359;DHT22;11851;50.796;4.372;2022-07-12T00:11:12;22.00;99.90
23359;DHT22;11851;50.796;4.372;2022-07-12T00:13:37;22.00;99.90
23359;DHT22;11851;50.796;4.372;2022-07-12T00:16:03;21.90;99.90
23359;DHT22;11851;50.796;4.372;2022-07-12T00:18:29;21.90;99.90
23359;DHT22;11851;50.796;4.372;2022-07-12T00:20:54;21.80;99.90
23359;DHT22;11851;50.796;4.372;2022-07-12T00:23:20;21.80;99.90
23359;DHT22;11851;50.796;4.372;2022-07-12T00:25:46;21.70;99.90
23359;DHT22;11851;50.796;4.372;2022-07-12T00:28:11;21.70;99.90
23359;DHT22;11851;50.796;4.372;2022-07-12T00:30:37;21.70;99.90
23359;DHT22;11851;50.796;4.372;2022-07-12T00:33:03;21.70;99.90
23359;DHT22;11851;50.796;4.372;2022-07-12T00:35:28;21.70;99.90
23359;DHT22;11851;50.796;4.372;2022-07-12T00:37:54;21.60;99.90
23359;DHT22;11851;50.796;4.372;2022-07-12T00:40:20;21.60;99.90
23359;DHT22;11851;50.796;4.372;2022-07-12T00:42:45;21.60;99.90
23359;DHT22;11851;50.796;4.372;2022-07-12T00:45:11;21.60;99.90
23359;DHT22;11851;50.796;4.372;2022-07-12T00:47:44;21.60;99.90
23359;DHT22;11851;50.796;4.372;2022-07-12T00:52:38;21.50;99.90
23359;DHT22;11851;50.796;4.372;2022-07-12T00:55:05;21.40;99.90
23359;DHT22;11851;50.796;4.372;2022-07-12T00:57:32;21.40;99.90
23359;DHT22;11851;50.796;4.372;2022-07-12T00:59:58;21.40;99.90
23359;DHT22;11851;50.796;4.372;2022-07-12T01:02:24;21.30;99.90
23359;DHT22;11851;50.796;4.372;2022-07-12T01:04:51;21.30;99.90
23359;DHT22;11851;50.796;4.372;2022-07-12T01:07:17;21.20;99.90
23359;DHT22;11851;50.796;4.372;2022-07-12T01:09:43;21.20;99.90
23359;DHT22;11851;50.796;4.372;2022-07-12T01:12:09;21.20;99.90
23359;DHT22;11851;50.796;4.372;2022-07-12T01:14:35;21.20;99.90
23359;DHT22;11851;50.796;4.372;2022-07-12T01:17:01;21.20;99.90
23359;DHT22;11851;50.796;4.372;2022-07-12T01:19:27;21.20;99.90
23359;DHT22;11851;50.796;4.372;2022-07-12T01:21:56;21.10;99.90
23359;DHT22;11851;50.796;4.372;2022-07-12T01:24:22;21.10;99.90
23359;DHT22;11851;50.796;4.372;2022-07-12T01:26:49;21.10;99.90
23359;DHT22;11851;50.796;4.372;2022-07-12T01:29:16;21.00;99.90
23359;DHT22;11851;50.796;4.372;2022-07-12T01:31:42;20.90;99.90
23359;DHT22;11851;50.796;4.372;2022-07-12T01:34:09;20.90;99.90
23359;DHT22;11851;50.796;4.372;2022-07-12T01:36:35;20.90;99.90
23359;DHT22;11851;50.796;4.372;2022-07-12T01:39:03;20.80;99.90
23359;DHT22;11851;50.796;4.372;2022-07-12T01:41:31;20.80;99.90
23359;DHT22;11851;50.796;4.372;2022-07-12T01:43:57;20.80;99.90
23359;DHT22;11851;50.796;4.372;2022-07-12T01:46:23;20.70;99.90
23359;DHT22;11851;50.796;4.372;2022-07-12T01:48:48;20.70;99.90
23359;DHT22;11851;50.796;4.372;2022-07-12T01:51:14;20.70;99.90
23359;DHT22;11851;50.796;4.372;2022-07-12T01:53:40;20.70;99.90
23359;DHT22;11851;50.796;4.372;2022-07-12T01:56:06;20.70;99.90
23359;DHT22;11851;50.796;4.372;2022-07-12T01:58:32;20.60;99.90
23359;DHT22;11851;50.796;4.372;2022-07-12T02:00:58;20.60;99.90
23359;DHT22;11851;50.796;4.372;2022-07-12T02:03:24;20.50;99.90
23359;DHT22;11851;50.796;4.372;2022-07-12T02:05:50;20.50;99.90
23359;DHT22;11851;50.796;4.372;2022-07-12T02:08:15;20.50;99.90
23359;DHT22;11851;50.796;4.372;2022-07-12T02:10:42;20.40;99.90
23359;DHT22;11851;50.796;4.372;2022-07-12T02:13:08;20.40;99.90
23359;DHT22;11851;50.796;4.372;2022-07-12T02:15:34;20.40;99.90
23359;DHT22;11851;50.796;4.372;2022-07-12T02:18:00;20.40;99.90
23359;DHT22;11851;50.796;4.372;2022-07-12T02:20:25;20.30;99.90
23359;DHT22;11851;50.796;4.372;2022-07-12T02:22:51;20.30;99.90
23359;DHT22;11851;50.796;4.372;2022-07-12T02:25:17;20.20;99.90
23359;DHT22;11851;50.796;4.372;2022-07-12T02:27:42;20.20;99.90
23359;DHT22;11851;50.796;4.372;2022-07-12T02:30:10;20.20;99.90
23359;DHT22;11851;50.796;4.372;2022-07-12T02:32:37;20.20;99.90
23359;DHT22;11851;50.796;4.372;2022-07-12T02:35:06;20.20;99.90
23359;DHT22;11851;50.796;4.372;2022-07-12T02:37:32;20.10;99.90
23359;DHT22;11851;50.796;4.372;2022-07-12T02:39:58;20.10;99.90
23359;DHT22;11851;50.796;4.372;2022-07-12T02:42:42;20.10;99.90
23359;DHT22;11851;50.796;4.372;2022-07-12T02:45:09;20.10;99.90
23359;DHT22;11851;50.796;4.372;2022-07-12T02:47:41;20.10;99.90
23359;DHT22;11851;50.796;4.372;2022-07-12T02:50:07;20.10;99.90
23359;DHT22;11851;50.796;4.372;2022-07-12T02:52:34;20.10;99.90
23359;DHT22;11851;50.796;4.372;2022-07-12T02:54:59;20.00;99.90
23359;DHT22;11851;50.796;4.372;2022-07-12T02:57:25;20.00;99.90
23359;DHT22;11851;50.796;4.372;2022-07-12T02:59:51;20.00;99.90
23359;DHT22;11851;50.796;4.372;2022-07-12T03:02:17;19.90;99.90
23359;DHT22;11851;50.796;4.372;2022-07-12T03:04:42;19.90;99.90
23359;DHT22;11851;50.796;4.372;2022-07-12T03:07:08;19.90;99.90
23359;DHT22;11851;50.796;4.372;2022-07-12T03:09:34;19.90;99.90
23359;DHT22;11851;50.796;4.372;2022-07-12T03:12:00;19.90;99.90
23359;DHT22;11851;50.796;4.372;2022-07-12T03:14:26;19.90;99.90
23359;DHT22;11851;50.796;4.372;2022-07-12T03:16:52;19.80;99.90
23359;DHT22;11851;50.796;4.372;2022-07-12T03:19:17;19.80;99.90
23359;DHT22;11851;50.796;4.372;2022-07-12T03:21:43;19.80;99.90
23359;DHT22;11851;50.796;4.372;2022-07-12T03:24:09;19.70;99.90
23359;DHT22;11851;50.796;4.372;2022-07-12T03:26:35;19.70;99.90
23359;DHT22;11851;50.796;4.372;2022-07-12T03:29:01;19.70;99.90
23359;DHT22;11851;50.796;4.372;2022-07-12T03:31:27;19.70;99.90
23359;DHT22;11851;50.796;4.372;2022-07-12T03:33:53;19.70;99.90
23359;DHT22;11851;50.796;4.372;2022-07-12T03:36:18;19.70;99.90
23359;DHT22;11851;50.796;4.372;2022-07-12T03:38:44;19.60;99.90
23359;DHT22;11851;50.796;4.372;2022-07-12T03:41:10;19.60;99.90
23359;DHT22;11851;50.796;4.372;2022-07-12T03:43:35;19.60;99.90
23359;DHT22;11851;50.796;4.372;2022-07-12T03:46:01;19.60;99.90
23359;DHT22;11851;50.796;4.372;2022-07-12T03:48:27;19.60;99.90
23359;DHT22;11851;50.796;4.372;2022-07-12T03:50:52;19.60;99.90
23359;DHT22;11851;50.796;4.372;2022-07-12T03:53:19;19.50;99.90
23359;DHT22;11851;50.796;4.372;2022-07-12T03:55:44;19.60;99.90
23359;DHT22;11851;50.796;4.372;2022-07-12T03:58:10;19.60;99.90
23359;DHT22;11851;50.796;4.372;2022-07-12T04:00:36;19.60;99.90
23359;DHT22;11851;50.796;4.372;2022-07-12T04:03:01;19.60;99.90
23359;DHT22;11851;50.796;4.372;2022-07-12T04:05:27;19.60;99.90
23359;DHT22;11851;50.796;4.372;2022-07-12T04:07:53;19.60;99.90
23359;DHT22;11851;50.796;4.372;2022-07-12T04:10:20;19.60;99.90
23359;DHT22;11851;50.796;4.372;2022-07-12T04:12:45;19.60;99.90
23359;DHT22;11851;50.796;4.372;2022-07-12T04:15:11;19.50;99.90
23359;DHT22;11851;50.796;4.372;2022-07-12T04:17:38;19.50;99.90
23359;DHT22;11851;50.796;4.372;2022-07-12T04:20:04;19.50;99.90
23359;DHT22;11851;50.796;4.372;2022-07-12T04:22:31;19.50;99.90
23359;DHT22;11851;50.796;4.372;2022-07-12T04:24:57;19.50;99.90
23359;DHT22;11851;50.796;4.372;2022-07-12T04:27:24;19.50;99.90
23359;DHT22;11851;50.796;4.372;2022-07-12T04:29:51;19.50;99.90
23359;DHT22;11851;50.796;4.372;2022-07-12T04:32:17;19.50;99.90
23359;DHT22;11851;50.796;4.372;2022-07-12T04:34:43;19.50;99.90
23359;DHT22;11851;50.796;4.372;2022-07-12T04:37:08;19.60;99.90
23359;DHT22;11851;50.796;4.372;2022-07-12T04:39:34;19.60;99.90
23359;DHT22;11851;50.796;4.372;2022-07-12T04:42:00;19.60;99.90
23359;DHT22;11851;50.796;4.372;2022-07-12T04:44:26;19.60;99.90
23359;DHT22;11851;50.796;4.372;2022-07-12T04:46:52;19.70;99.90
23359;DHT22;11851;50.796;4.372;2022-07-12T04:49:18;19.70;99.90
23359;DHT22;11851;50.796;4.372;2022-07-12T04:51:43;19.80;99.90
23359;DHT22;11851;50.796;4.372;2022-07-12T04:54:10;19.80;99.90
23359;DHT22;11851;50.796;4.372;2022-07-12T04:56:36;19.90;99.90
23359;DHT22;11851;50.796;4.372;2022-07-12T04:59:02;19.90;99.90
23359;DHT22;11851;50.796;4.372;2022-07-12T05:01:29;20.00;99.90
23359;DHT22;11851;50.796;4.372;2022-07-12T05:03:55;20.00;99.90
23359;DHT22;11851;50.796;4.372;2022-07-12T05:06:21;20.10;99.90
23359;DHT22;11851;50.796;4.372;2022-07-12T05:08:48;20.20;99.90
23359;DHT22;11851;50.796;4.372;2022-07-12T05:11:14;20.20;99.90
23359;DHT22;11851;50.796;4.372;2022-07-12T05:13:39;20.30;99.90
23359;DHT22;11851;50.796;4.372;2022-07-12T05:16:07;20.40;99.90
23359;DHT22;11851;50.796;4.372;2022-07-12T05:18:34;20.50;99.90
23359;DHT22;11851;50.796;4.372;2022-07-12T05:20:59;20.60;99.90
23359;DHT22;11851;50.796;4.372;2022-07-12T05:23:25;20.60;99.90
23359;DHT22;11851;50.796;4.372;2022-07-12T05:25:51;20.70;99.90
23359;DHT22;11851;50.796;4.372;2022-07-12T05:28:17;20.70;99.90
23359;DHT22;11851;50.796;4.372;2022-07-12T05:30:43;20.80;99.90
23359;DHT22;11851;50.796;4.372;2022-07-12T05:33:09;20.90;99.90
23359;DHT22;11851;50.796;4.372;2022-07-12T05:35:35;20.90;99.90
23359;DHT22;11851;50.796;4.372;2022-07-12T05:38:01;21.00;99.90
23359;DHT22;11851;50.796;4.372;2022-07-12T05:40:27;21.10;99.90
23359;DHT22;11851;50.796;4.372;2022-07-12T05:42:52;21.20;99.90
23359;DHT22;11851;50.796;4.372;2022-07-12T05:45:18;21.30;99.90
23359;DHT22;11851;50.796;4.372;2022-07-12T05:47:44;21.40;99.90
23359;DHT22;11851;50.796;4.372;2022-07-12T05:50:10;21.50;99.90
23359;DHT22;11851;50.796;4.372;2022-07-12T05:52:36;21.60;99.90
23359;DHT22;11851;50.796;4.372;2022-07-12T05:55:20;21.70;99.90
23359;DHT22;11851;50.796;4.372;2022-07-12T05:57:46;21.90;99.90
23359;DHT22;11851;50.796;4.372;2022-07-12T06:00:11;22.00;99.90
23359;DHT22;11851;50.796;4.372;2022-07-12T06:02:37;22.10;99.90
23359;DHT22;11851;50.796;4.372;2022-07-12T06:05:03;22.20;99.90
23359;DHT22;11851;50.796;4.372;2022-07-12T06:07:29;22.30;99.90
23359;DHT22;11851;50.796;4.372;2022-07-12T06:09:54;22.40;99.90
23359;DHT22;11851;50.796;4.372;2022-07-12T06:12:20;22.50;99.90
23359;DHT22;11851;50.796;4.372;2022-07-12T06:14:45;22.60;99.90
23359;DHT22;11851;50.796;4.372;2022-07-12T06:17:12;22.70;99.90
23359;DHT22;11851;50.796;4.372;2022-07-12T06:19:38;22.70;99.90
23359;DHT22;11851;50.796;4.372;2022-07-12T06:22:03;22.80;99.90
23359;DHT22;11851;50.796;4.372;2022-07-12T06:24:29;22.90;99.90
23359;DHT22;11851;50.796;4.372;2022-07-12T06:26:55;23.00;99.90
23359;DHT22;11851;50.796;4.372;2022-07-12T06:29:20;23.00;99.90
23359;DHT22;11851;50.796;4.372;2022-07-12T06:31:46;23.10;99.90
23359;DHT22;11851;50.796;4.372;2022-07-12T06:34:12;23.20;99.90
23359;DHT22;11851;50.796;4.372;2022-07-12T06:36:37;23.20;99.90
23359;DHT22;11851;50.796;4.372;2022-07-12T06:39:03;23.30;99.90
23359;DHT22;11851;50.796;4.372;2022-07-12T06:41:28;23.30;99.90
23359;DHT22;11851;50.796;4.372;2022-07-12T06:43:55;23.40;99.90
23359;DHT22;11851;50.796;4.372;2022-07-12T06:46:20;23.40;99.90
23359;DHT22;11851;50.796;4.372;2022-07-12T06:48:46;23.40;99.90
23359;DHT22;11851;50.796;4.372;2022-07-12T06:51:12;23.40;99.90
23359;DHT22;11851;50.796;4.372;2022-07-12T06:53:38;23.50;99.90
23359;DHT22;11851;50.796;4.372;2022-07-12T06:56:04;23.50;99.90
23359;DHT22;11851;50.796;4.372;2022-07-12T06:58:29;23.50;99.90
23359;DHT22;11851;50.796;4.372;2022-07-12T07:00:55;23.60;99.80
23359;DHT22;11851;50.796;4.372;2022-07-12T07:03:20;23.60;99.50
23359;DHT22;11851;50.796;4.372;2022-07-12T07:05:46;23.60;99.30
23359;DHT22;11851;50.796;4.372;2022-07-12T07:08:12;23.60;99.00
23359;DHT22;11851;50.796;4.372;2022-07-12T07:10:37;23.70;99.10
23359;DHT22;11851;50.796;4.372;2022-07-12T07:13:03;23.70;99.10
23359;DHT22;11851;50.796;4.372;2022-07-12T07:15:29;23.70;99.10
23359;DHT22;11851;50.796;4.372;2022-07-12T07:17:54;23.80;98.80
23359;DHT22;11851;50.796;4.372;2022-07-12T07:20:20;23.80;98.80
23359;DHT22;11851;50.796;4.372;2022-07-12T07:22:46;23.80;98.80
23359;DHT22;11851;50.796;4.372;2022-07-12T07:25:12;23.80;98.80
23359;DHT22;11851;50.796;4.372;2022-07-12T07:27:38;23.90;98.90
23359;DHT22;11851;50.796;4.372;2022-07-12T07:30:05;23.90;98.90
23359;DHT22;11851;50.796;4.372;2022-07-12T07:32:59;24.00;98.80
23359;DHT22;11851;50.796;4.372;2022-07-12T07:35:25;23.90;98.20
23359;DHT22;11851;50.796;4.372;2022-07-12T07:37:51;24.00;97.90
23359;DHT22;11851;50.796;4.372;2022-07-12T07:40:16;23.90;97.90
23359;DHT22;11851;50.796;4.372;2022-07-12T07:42:42;23.90;97.70
23359;DHT22;11851;50.796;4.372;2022-07-12T07:45:08;24.00;97.70
23359;DHT22;11851;50.796;4.372;2022-07-12T07:47:49;24.00;97.60
23359;DHT22;11851;50.796;4.372;2022-07-12T07:50:15;24.00;97.60
23359;DHT22;11851;50.796;4.372;2022-07-12T07:52:41;24.00;97.80
23359;DHT22;11851;50.796;4.372;2022-07-12T07:55:07;24.00;98.00
23359;DHT22;11851;50.796;4.372;2022-07-12T07:57:33;24.10;98.10
23359;DHT22;11851;50.796;4.372;2022-07-12T07:59:58;24.10;97.80
23359;DHT22;11851;50.796;4.372;2022-07-12T08:02:24;24.20;97.20
23359;DHT22;11851;50.796;4.372;2022-07-12T08:04:50;24.30;97.10
23359;DHT22;11851;50.796;4.372;2022-07-12T08:07:17;24.30;97.10
23359;DHT22;11851;50.796;4.372;2022-07-12T08:09:43;24.40;97.20
23359;DHT22;11851;50.796;4.372;2022-07-12T08:12:08;24.40;97.10
23359;DHT22;11851;50.796;4.372;2022-07-12T08:14:34;24.50;96.80
23359;DHT22;11851;50.796;4.372;2022-07-12T08:16:59;24.60;96.60
23359;DHT22;11851;50.796;4.372;2022-07-12T08:19:25;24.70;96.50
23359;DHT22;11851;50.796;4.372;2022-07-12T08:21:51;24.70;96.30
23359;DHT22;11851;50.796;4.372;2022-07-12T08:24:16;24.80;96.20
23359;DHT22;11851;50.796;4.372;2022-07-12T08:26:42;24.90;96.10
23359;DHT22;11851;50.796;4.372;2022-07-12T08:29:07;25.00;95.80
23359;DHT22;11851;50.796;4.372;2022-07-12T08:31:33;25.00;95.60
23359;DHT22;11851;50.796;4.372;2022-07-12T08:33:59;25.10;95.30
23359;DHT22;11851;50.796;4.372;2022-07-12T08:36:24;25.20;95.00
23359;DHT22;11851;50.796;4.372;2022-07-12T08:38:50;25.20;94.80
23359;DHT22;11851;50.796;4.372;2022-07-12T08:41:16;25.30;94.80
23359;DHT22;11851;50.796;4.372;2022-07-12T08:43:42;25.30;94.80
23359;DHT22;11851;50.796;4.372;2022-07-12T08:46:09;25.40;94.80
23359;DHT22;11851;50.796;4.372;2022-07-12T08:48:37;25.50;95.00
23359;DHT22;11851;50.796;4.372;2022-07-12T08:51:08;25.50;94.90
23359;DHT22;11851;50.796;4.372;2022-07-12T08:53:34;25.50;94.80
23359;DHT22;11851;50.796;4.372;2022-07-12T08:56:01;25.60;94.70
23359;DHT22;11851;50.796;4.372;2022-07-12T08:58:26;25.70;94.80
23359;DHT22;11851;50.796;4.372;2022-07-12T09:00:52;25.70;94.60
23359;DHT22;11851;50.796;4.372;2022-07-12T09:03:18;25.80;94.50
23359;DHT22;11851;50.796;4.372;2022-07-12T09:05:55;25.90;94.20
23359;DHT22;11851;50.796;4.372;2022-07-12T09:08:29;25.90;93.90
23359;DHT22;11851;50.796;4.372;2022-07-12T09:11:04;26.00;93.80
23359;DHT22;11851;50.796;4.372;2022-07-12T09:13:50;26.10;93.70
23359;DHT22;11851;50.796;4.372;2022-07-12T09:16:21;26.10;93.50
23359;DHT22;11851;50.796;4.372;2022-07-12T09:18:48;26.20;93.40
23359;DHT22;11851;50.796;4.372;2022-07-12T09:21:25;26.20;93.40
23359;DHT22;11851;50.796;4.372;2022-07-12T09:24:00;26.30;93.50
23359;DHT22;11851;50.796;4.372;2022-07-12T09:26:32;26.40;93.10
23359;DHT22;11851;50.796;4.372;2022-07-12T09:29:06;26.50;92.80
23359;DHT22;11851;50.796;4.372;2022-07-12T09:34:05;26.50;92.60
23359;DHT22;11851;50.796;4.372;2022-07-12T09:36:56;26.60;92.60
23359;DHT22;11851;50.796;4.372;2022-07-12T09:39:23;26.70;92.20
23359;DHT22;11851;50.796;4.372;2022-07-12T09:41:50;26.70;92.00
23359;DHT22;11851;50.796;4.372;2022-07-12T09:44:18;26.80;92.00
23359;DHT22;11851;50.796;4.372;2022-07-12T09:46:44;26.80;91.90
23359;DHT22;11851;50.796;4.372;2022-07-12T09:49:10;26.80;91.60
23359;DHT22;11851;50.796;4.372;2022-07-12T09:51:37;26.90;91.40
23359;DHT22;11851;50.796;4.372;2022-07-12T09:54:04;27.00;91.20
23359;DHT22;11851;50.796;4.372;2022-07-12T09:56:32;27.00;90.80
23359;DHT22;11851;50.796;4.372;2022-07-12T09:59:01;27.10;90.50
23359;DHT22;11851;50.796;4.372;2022-07-12T10:01:30;27.10;90.30
23359;DHT22;11851;50.796;4.372;2022-07-12T10:03:57;27.20;90.20
23359;DHT22;11851;50.796;4.372;2022-07-12T10:06:29;27.20;89.90
23359;DHT22;11851;50.796;4.372;2022-07-12T10:08:56;27.30;88.90
23359;DHT22;11851;50.796;4.372;2022-07-12T10:11:23;27.30;88.60
23359;DHT22;11851;50.796;4.372;2022-07-12T10:13:50;27.40;88.80
23359;DHT22;11851;50.796;4.372;2022-07-12T10:16:17;27.50;88.30
23359;DHT22;11851;50.796;4.372;2022-07-12T10:19:25;27.50;87.90
23359;DHT22;11851;50.796;4.372;2022-07-12T10:21:53;27.60;87.50
23359;DHT22;11851;50.796;4.372;2022-07-12T10:29:52;27.60;86.30
23359;DHT22;11851;50.796;4.372;2022-07-12T10:32:34;27.60;86.10
23359;DHT22;11851;50.796;4.372;2022-07-12T10:37:27;27.70;85.70
23359;DHT22;11851;50.796;4.372;2022-07-12T10:40:15;27.70;85.20
23359;DHT22;11851;50.796;4.372;2022-07-12T10:43:12;27.80;85.40
23359;DHT22;11851;50.796;4.372;2022-07-12T10:45:43;27.80;85.60
23359;DHT22;11851;50.796;4.372;2022-07-12T10:48:19;27.90;85.30
23359;DHT22;11851;50.796;4.372;2022-07-12T10:58:39;28.10;83.50
23359;DHT22;11851;50.796;4.372;2022-07-12T11:01:22;28.10;82.70
23359;DHT22;11851;50.796;4.372;2022-07-12T11:03:52;28.20;82.70
23359;DHT22;11851;50.796;4.372;2022-07-12T11:06:23;28.30;82.80
23359;DHT22;11851;50.796;4.372;2022-07-12T11:11:15;28.40;82.20
23359;DHT22;11851;50.796;4.372;2022-07-12T11:13:41;28.50;82.30
23359;DHT22;11851;50.796;4.372;2022-07-12T11:16:07;28.50;81.70
23359;DHT22;11851;50.796;4.372;2022-07-12T11:18:35;28.60;81.60
23359;DHT22;11851;50.796;4.372;2022-07-12T11:21:02;28.70;81.20
23359;DHT22;11851;50.796;4.372;2022-07-12T11:23:29;28.70;80.80
23359;DHT22;11851;50.796;4.372;2022-07-12T11:25:59;28.80;81.20
23359;DHT22;11851;50.796;4.372;2022-07-12T11:28:26;28.80;81.40
23359;DHT22;11851;50.796;4.372;2022-07-12T11:30:54;28.90;81.20
23359;DHT22;11851;50.796;4.372;2022-07-12T11:33:28;28.90;80.90
23359;DHT22;11851;50.796;4.372;2022-07-12T11:35:55;29.00;80.90
23359;DHT22;11851;50.796;4.372;2022-07-12T11:38:28;29.00;79.60
23359;DHT22;11851;50.796;4.372;2022-07-12T11:40:57;29.00;79.10
23359;DHT22;11851;50.796;4.372;2022-07-12T11:43:23;29.10;78.80
23359;DHT22;11851;50.796;4.372;2022-07-12T11:45:49;29.10;78.40
23359;DHT22;11851;50.796;4.372;2022-07-12T11:48:15;29.10;78.10
23359;DHT22;11851;50.796;4.372;2022-07-12T11:50:44;29.20;77.60
23359;DHT22;11851;50.796;4.372;2022-07-12T11:53:18;29.20;77.10
23359;DHT22;11851;50.796;4.372;2022-07-12T11:55:45;29.20;76.70
23359;DHT22;11851;50.796;4.372;2022-07-12T11:58:11;29.20;76.50
23359;DHT22;11851;50.796;4.372;2022-07-12T12:00:37;29.30;76.90
23359;DHT22;11851;50.796;4.372;2022-07-12T12:03:04;29.30;76.60
23359;DHT22;11851;50.796;4.372;2022-07-12T12:05:30;29.40;76.20
23359;DHT22;11851;50.796;4.372;2022-07-12T12:07:56;29.50;76.00
23359;DHT22;11851;50.796;4.372;2022-07-12T12:10:21;29.50;76.10
23359;DHT22;11851;50.796;4.372;2022-07-12T12:12:49;29.60;76.00
23359;DHT22;11851;50.796;4.372;2022-07-12T12:15:23;29.60;75.10
23359;DHT22;11851;50.796;4.372;2022-07-12T12:17:54;29.70;74.90
23359;DHT22;11851;50.796;4.372;2022-07-12T12:20:22;29.70;74.30
23359;DHT22;11851;50.796;4.372;2022-07-12T12:22:51;29.70;74.20
23359;DHT22;11851;50.796;4.372;2022-07-12T12:25:17;29.70;74.10
23359;DHT22;11851;50.796;4.372;2022-07-12T12:27:48;29.70;74.00
23359;DHT22;11851;50.796;4.372;2022-07-12T12:30:15;29.70;74.40
23359;DHT22;11851;50.796;4.372;2022-07-12T12:35:20;29.90;74.30
23359;DHT22;11851;50.796;4.372;2022-07-12T12:37:55;30.00;73.90
23359;DHT22;11851;50.796;4.372;2022-07-12T12:40:27;30.00;73.40
23359;DHT22;11851;50.796;4.372;2022-07-12T12:43:04;30.10;71.60
23359;DHT22;11851;50.796;4.372;2022-07-12T12:45:31;30.20;70.60
23359;DHT22;11851;50.796;4.372;2022-07-12T12:48:04;30.30;70.10
23359;DHT22;11851;50.796;4.372;2022-07-12T12:50:47;30.40;67.80
23359;DHT22;11851;50.796;4.372;2022-07-12T12:53:17;30.40;66.40
23359;DHT22;11851;50.796;4.372;2022-07-12T12:55:49;30.50;66.80
23359;DHT22;11851;50.796;4.372;2022-07-12T12:58:16;30.50;65.30
23359;DHT22;11851;50.796;4.372;2022-07-12T13:00:45;30.50;65.70
23359;DHT22;11851;50.796;4.372;2022-07-12T13:03:12;30.50;64.60
23359;DHT22;11851;50.796;4.372;2022-07-12T13:05:39;30.50;65.10
23359;DHT22;11851;50.796;4.372;2022-07-12T13:08:08;30.60;64.50
23359;DHT22;11851;50.796;4.372;2022-07-12T13:10:35;30.70;63.10
23359;DHT22;11851;50.796;4.372;2022-07-12T13:13:02;30.70;62.80
23359;DHT22;11851;50.796;4.372;2022-07-12T13:15:28;30.70;63.20
23359;DHT22;11851;50.796;4.372;2022-07-12T13:17:54;30.80;63.50
23359;DHT22;11851;50.796;4.372;2022-07-12T13:20:20;30.90;63.80
23359;DHT22;11851;50.796;4.372;2022-07-12T13:22:46;31.00;63.90
23359;DHT22;11851;50.796;4.372;2022-07-12T13:25:13;31.10;64.30
23359;DHT22;11851;50.796;4.372;2022-07-12T13:27:40;31.20;63.80
23359;DHT22;11851;50.796;4.372;2022-07-12T13:30:07;31.30;63.90
23359;DHT22;11851;50.796;4.372;2022-07-12T13:32:34;31.40;61.90
23359;DHT22;11851;50.796;4.372;2022-07-12T13:35:00;31.40;62.30
23359;DHT22;11851;50.796;4.372;2022-07-12T13:37:27;31.50;62.30
23359;DHT22;11851;50.796;4.372;2022-07-12T13:39:53;31.60;60.40
23359;DHT22;11851;50.796;4.372;2022-07-12T13:42:47;31.60;60.40
23359;DHT22;11851;50.796;4.372;2022-07-12T13:45:22;31.80;59.40
23359;DHT22;11851;50.796;4.372;2022-07-12T13:47:52;31.80;58.40
23359;DHT22;11851;50.796;4.372;2022-07-12T13:50:20;31.80;58.60
23359;DHT22;11851;50.796;4.372;2022-07-12T13:52:47;31.80;59.30
23359;DHT22;11851;50.796;4.372;2022-07-12T13:55:14;31.80;59.60
23359;DHT22;11851;50.796;4.372;2022-07-12T13:57:41;32.00;59.50
23359;DHT22;11851;50.796;4.372;2022-07-12T14:00:16;32.20;59.10
23359;DHT22;11851;50.796;4.372;2022-07-12T14:02:44;32.40;59.00
23359;DHT22;11851;50.796;4.372;2022-07-12T14:05:11;32.60;59.10
23359;DHT22;11851;50.796;4.372;2022-07-12T14:07:38;32.80;58.70
23359;DHT22;11851;50.796;4.372;2022-07-12T14:10:05;32.90;58.00
23359;DHT22;11851;50.796;4.372;2022-07-12T14:12:30;33.10;57.60
23359;DHT22;11851;50.796;4.372;2022-07-12T14:14:57;33.20;57.80
23359;DHT22;11851;50.796;4.372;2022-07-12T14:17:49;33.40;57.40
23359;DHT22;11851;50.796;4.372;2022-07-12T14:20:18;33.70;57.30
23359;DHT22;11851;50.796;4.372;2022-07-12T14:22:46;33.90;56.50
23359;DHT22;11851;50.796;4.372;2022-07-12T14:25:12;34.10;56.70
23359;DHT22;11851;50.796;4.372;2022-07-12T14:27:39;34.30;57.20
23359;DHT22;11851;50.796;4.372;2022-07-12T14:30:05;34.50;56.90
23359;DHT22;11851;50.796;4.372;2022-07-12T14:32:32;34.70;56.10
23359;DHT22;11851;50.796;4.372;2022-07-12T14:34:58;35.00;56.10
23359;DHT22;11851;50.796;4.372;2022-07-12T14:37:24;35.20;55.80
23359;DHT22;11851;50.796;4.372;2022-07-12T14:39:49;35.50;55.60
23359;DHT22;11851;50.796;4.372;2022-07-12T14:42:15;35.80;55.30
23359;DHT22;11851;50.796;4.372;2022-07-12T14:44:41;36.10;54.80
23359;DHT22;11851;50.796;4.372;2022-07-12T14:47:08;36.30;53.30
23359;DHT22;11851;50.796;4.372;2022-07-12T14:49:33;36.60;52.50
23359;DHT22;11851;50.796;4.372;2022-07-12T14:51:59;36.90;51.90
23359;DHT22;11851;50.796;4.372;2022-07-12T14:54:25;37.10;51.60
23359;DHT22;11851;50.796;4.372;2022-07-12T14:56:51;37.40;51.00
23359;DHT22;11851;50.796;4.372;2022-07-12T14:59:17;37.60;49.70
23359;DHT22;11851;50.796;4.372;2022-07-12T15:01:42;37.80;49.20
23359;DHT22;11851;50.796;4.372;2022-07-12T15:04:08;38.00;46.50
23359;DHT22;11851;50.796;4.372;2022-07-12T15:06:34;38.00;43.80
23359;DHT22;11851;50.796;4.372;2022-07-12T15:09:00;38.00;45.00
23359;DHT22;11851;50.796;4.372;2022-07-12T15:11:26;38.10;46.90
23359;DHT22;11851;50.796;4.372;2022-07-12T15:13:52;38.20;47.70
23359;DHT22;11851;50.796;4.372;2022-07-12T15:16:17;38.30;47.10
23359;DHT22;11851;50.796;4.372;2022-07-12T15:18:43;38.40;44.60
23359;DHT22;11851;50.796;4.372;2022-07-12T15:21:09;38.50;42.80
23359;DHT22;11851;50.796;4.372;2022-07-12T15:23:34;38.40;40.50
23359;DHT22;11851;50.796;4.372;2022-07-12T15:26:00;38.30;40.40
23359;DHT22;11851;50.796;4.372;2022-07-12T15:28:26;38.30;40.60
23359;DHT22;11851;50.796;4.372;2022-07-12T15:30:54;38.30;42.00
23359;DHT22;11851;50.796;4.372;2022-07-12T15:33:20;38.30;41.50
23359;DHT22;11851;50.796;4.372;2022-07-12T15:35:45;38.30;42.00
23359;DHT22;11851;50.796;4.372;2022-07-12T15:38:11;38.30;42.10
23359;DHT22;11851;50.796;4.372;2022-07-12T15:40:37;38.20;41.70
23359;DHT22;11851;50.796;4.372;2022-07-12T15:43:03;38.00;41.20
23359;DHT22;11851;50.796;4.372;2022-07-12T15:45:29;37.80;40.80
23359;DHT22;11851;50.796;4.372;2022-07-12T15:47:55;37.40;41.00
23359;DHT22;11851;50.796;4.372;2022-07-12T15:50:21;37.00;41.40
23359;DHT22;11851;50.796;4.372;2022-07-12T15:52:46;36.50;41.70
23359;DHT22;11851;50.796;4.372;2022-07-12T15:55:31;36.10;42.20
23359;DHT22;11851;50.796;4.372;2022-07-12T15:57:58;35.80;42.70